Airfield :
LOGIN :

Register | Disclaimer

   EN    FR    IT 

 










Legend :    VFR   Marginal VFR   IFR   Intensive IFR   Very Intensive IFR
Visi :
Ceiling :
>= 8 km
>= 3000ft
5 to 8 km
1000 to 3000 ft
1500m to 5 km
500 to 1000 ft
800 to 1500m
200 to 500 ft
< 800m
< 200 ft
Symbols :   Thunderstorms  Fog  Heavy snow  Heavy precipitations  Wind > 20 kt
SIGMETs :     Misc.  Thunderstorms  Icing  Turbulence  Mountain Waves  Volcanic Ashes







- Airport Elevation : 489 ft
- IATA code : GDN


EPGD - Gdansk

CURRENT METAR :
  • 290330Z 27012KT CAVOK 16/12 Q1011

EXPIRED METARs :
  • 290300Z 27011KT CAVOK 16/12 Q1011
  • 290230Z 26007KT CAVOK 16/11 Q1011
  • 290200Z 25008KT CAVOK 17/11 Q1011
  • 290130Z 25009KT CAVOK 18/11 Q1012
  • 290100Z 26009KT CAVOK 18/12 Q1012

TAF TAF EPGD
Valid from the 29 at 00:00 until the 30 at 00:00 UTC


282330Z 2900/2924 25010KT CAVOK
BECMG 2906/2908 31010KT
BECMG 2908/2910 BKN014
PROB40
TEMPO 2908/2918 4000 BR BKN007
BECMG 2915/2918 VRB02KT SCT016
No reported NOTAMs for that airfield.



MET'MAP, your aeronautical weather chart ! - Copyright ORBIFLY December 2007 - Disclaimer

ORBIFLY MET'MAP TEAM :

Programming & Development : Alexandra Zaïnal
Concept & Development : Baudouin d'Aumeries
Co-Development & Prog : Marc-Olivier Méhu
Technical & hardware support : Manuel Goepfert

Contact : metmap@orbifly.com




SOURCES & CREDITS :

   NOAA